Time;durP1;ratioP1;P1;durP2;ratioP2;P2;SDS_P1;SDS_P2;PMS_P1;PMS_P2;Temp;Humidity;BMP_temperature;BMP_pressure;BME280_temperature;BME280_humidity;BME280_pressure;Samples;Min_cycle;Max_cycle;Signal;HPM_P1;HPM_P2
2023/05/22 00:01:36;;;;;;;3.40;3.10;;;20.80;73.30;;;;;;5037723;28;20284;-67
2023/05/22 00:04:01;;;;;;;7.83;4.47;;;20.80;72.70;;;;;;5040291;28;20213;-67
2023/05/22 00:06:27;;;;;;;3.80;3.50;;;20.80;72.90;;;;;;5040146;28;20220;-66
2023/05/22 00:08:52;;;;;;;4.43;3.20;;;20.80;72.80;;;;;;5038595;28;20805;-66
2023/05/22 00:11:18;;;;;;;4.93;3.67;;;20.70;72.70;;;;;;5040048;28;20855;-65
2023/05/22 00:13:43;;;;;;;6.03;3.53;;;20.80;73.10;;;;;;5036186;28;20210;-65
2023/05/22 00:16:09;;;;;;;5.33;3.63;;;20.70;73.00;;;;;;5035727;28;20229;-66
2023/05/22 00:18:34;;;;;;;5.30;3.43;;;20.70;72.60;;;;;;5038595;28;20217;-65
2023/05/22 00:21:00;;;;;;;5.17;3.97;;;20.70;73.60;;;;;;5037613;28;20193;-66
2023/05/22 00:23:27;;;;;;;4.87;3.20;;;20.70;72.60;;;;;;5039126;28;20695;-66
2023/05/22 00:25:52;;;;;;;3.20;2.70;;;20.70;72.60;;;;;;5039235;28;20197;-70
2023/05/22 00:28:18;;;;;;;4.40;3.63;;;20.70;72.60;;;;;;5037442;28;20229;-67
2023/05/22 00:30:44;;;;;;;8.57;3.23;;;20.60;72.60;;;;;;5039079;28;20224;-66
2023/05/22 00:33:10;;;;;;;5.97;3.73;;;20.60;72.90;;;;;;5039212;28;20300;-69
2023/05/22 00:35:36;;;;;;;3.50;3.20;;;20.60;73.20;;;;;;5038701;28;20239;-66
2023/05/22 00:38:04;;;;;;;4.10;3.10;;;20.50;73.00;;;;;;5038032;28;20758;-66
2023/05/22 00:40:29;;;;;;;6.07;3.27;;;20.60;73.40;;;;;;5039025;28;20236;-66
2023/05/22 00:42:55;;;;;;;2.80;2.57;;;20.60;72.70;;;;;;5033164;28;20217;-66
2023/05/22 00:45:22;;;;;;;3.40;3.10;;;20.60;72.70;;;;;;5034315;28;20197;-66
2023/05/22 00:47:47;;;;;;;11.33;4.50;;;20.60;72.90;;;;;;5039458;28;20247;-66
2023/05/22 00:50:13;;;;;;;6.33;3.80;;;20.50;72.90;;;;;;5038127;28;20210;-66
2023/05/22 00:52:41;;;;;;;3.47;3.00;;;20.50;73.00;;;;;;5029702;28;20913;-66
2023/05/22 00:55:07;;;;;;;4.43;3.17;;;20.50;73.50;;;;;;5037792;28;20751;-66
2023/05/22 00:57:34;;;;;;;3.57;3.27;;;20.50;74.10;;;;;;5038112;28;20220;-66
2023/05/22 01:00:04;;;;;;;7.60;3.33;;;20.50;72.60;;;;;;5032697;28;20213;-66
2023/05/22 01:02:31;;;;;;;3.93;3.63;;;20.40;72.90;;;;;;5034372;28;20214;-66
2023/05/22 01:04:57;;;;;;;3.47;3.17;;;20.30;73.10;;;;;;5038206;28;20254;-66
2023/05/22 01:07:23;;;;;;;4.10;3.70;;;20.20;73.50;;;;;;5038050;28;20691;-66
2023/05/22 01:09:51;;;;;;;3.17;2.93;;;20.20;73.00;;;;;;5033716;28;20293;-65
2023/05/22 01:12:30;;;;;;;4.57;3.53;;;20.10;73.60;;;;;;5038438;28;20216;-65
2023/05/22 01:15:27;;;;;;;3.13;2.70;;;20.10;73.60;;;;;;5038322;28;20217;-67
2023/05/22 01:18:18;;;;;;;5.07;3.83;;;20.10;73.90;;;;;;5037988;28;20659;-66
2023/05/22 01:21:20;;;;;;;4.20;3.80;;;20.10;73.50;;;;;;5036434;28;20269;-67
2023/05/22 01:24:10;;;;;;;4.33;3.90;;;20.00;73.70;;;;;;5020073;28;20209;-70
2023/05/22 01:26:53;;;;;;;5.23;3.10;;;20.00;73.30;;;;;;5038533;28;20215;-66
2023/05/22 01:29:58;;;;;;;7.80;3.50;;;20.00;73.40;;;;;;5038522;28;20220;-66
2023/05/22 01:32:27;;;;;;;3.97;3.67;;;19.90;73.90;;;;;;5038144;28;20217;-68
2023/05/22 01:34:58;;;;;;;3.97;3.67;;;19.90;73.40;;;;;;5038002;28;20679;-67
2023/05/22 01:37:24;;;;;;;5.73;3.53;;;19.80;73.40;;;;;;5034817;28;20229;-68
2023/05/22 01:39:51;;;;;;;3.83;3.00;;;19.70;73.60;;;;;;5038257;28;20679;-66
2023/05/22 01:42:17;;;;;;;3.37;3.10;;;19.80;73.50;;;;;;5036868;28;20206;-67
2023/05/22 01:44:43;;;;;;;3.90;3.50;;;19.80;73.50;;;;;;5038132;28;20201;-67
2023/05/22 01:47:09;;;;;;;3.53;3.23;;;19.80;73.50;;;;;;5038225;28;20202;-67
2023/05/22 01:49:35;;;;;;;4.40;3.50;;;19.80;73.10;;;;;;5037202;28;20300;-67
2023/05/22 01:52:17;;;;;;;4.27;3.40;;;19.80;74.50;;;;;;5021907;28;20196;-67
2023/05/22 01:54:57;;;;;;;3.70;3.40;;;19.70;73.40;;;;;;5027140;28;20212;-67
2023/05/22 01:57:42;;;;;;;3.57;3.27;;;19.60;74.70;;;;;;5022937;28;20820;-68
2023/05/22 02:00:14;;;;;;;6.23;3.33;;;19.50;75.20;;;;;;5025287;28;20221;-67
2023/05/22 02:02:43;;;;;;;3.37;3.07;;;19.60;74.10;;;;;;5027514;28;20235;-67
2023/05/22 02:05:11;;;;;;;5.83;3.47;;;19.60;73.60;;;;;;5027269;28;20194;-67
2023/05/22 02:07:38;;;;;;;6.43;3.33;;;19.60;74.00;;;;;;5026999;28;20199;-67
2023/05/22 02:10:06;;;;;;;4.17;3.10;;;19.60;72.90;;;;;;5022441;28;20221;-66
2023/05/22 02:12:33;;;;;;;5.00;3.00;;;19.60;73.40;;;;;;5026806;28;20212;-67
2023/05/22 02:14:59;;;;;;;4.07;3.33;;;19.50;74.40;;;;;;5027411;28;20835;-66
2023/05/22 02:17:25;;;;;;;3.13;2.93;;;19.40;74.80;;;;;;5027236;28;20297;-66
2023/05/22 02:19:51;;;;;;;5.07;3.50;;;19.30;75.00;;;;;;5028461;28;20308;-66
2023/05/22 02:22:16;;;;;;;7.63;3.23;;;19.30;75.70;;;;;;5023679;28;20216;-66
2023/05/22 02:24:47;;;;;;;3.70;3.23;;;19.30;75.50;;;;;;5028008;28;20196;-65
2023/05/22 02:27:12;;;;;;;4.33;3.93;;;19.30;75.50;;;;;;5028312;28;20562;-66
2023/05/22 02:29:38;;;;;;;4.30;3.90;;;19.30;75.90;;;;;;5025980;28;20213;-66
2023/05/22 02:32:04;;;;;;;5.80;3.73;;;19.20;77.10;;;;;;5022516;28;20582;-66
2023/05/22 02:34:33;;;;;;;7.60;4.20;;;19.20;76.80;;;;;;5029234;28;20213;-66
2023/05/22 02:37:02;;;;;;;4.37;3.50;;;19.20;76.60;;;;;;5038198;28;20242;-68
2023/05/22 02:39:28;;;;;;;6.23;4.10;;;19.20;76.20;;;;;;5031172;28;20216;-66
2023/05/22 02:41:53;;;;;;;5.37;3.83;;;19.20;76.40;;;;;;5035462;28;20204;-66
2023/05/22 02:44:19;;;;;;;4.73;3.43;;;19.20;76.40;;;;;;5037083;28;20234;-66
2023/05/22 02:46:46;;;;;;;4.80;4.10;;;19.10;77.40;;;;;;5035801;28;20191;-66
2023/05/22 02:49:12;;;;;;;4.60;4.20;;;19.10;77.90;;;;;;5037334;28;20211;-67
2023/05/22 02:51:37;;;;;;;3.93;3.63;;;18.90;78.30;;;;;;5036618;28;20653;-66
2023/05/22 02:54:03;;;;;;;3.90;3.50;;;19.00;78.50;;;;;;5037028;28;20207;-66
2023/05/22 02:56:28;;;;;;;4.90;4.40;;;18.90;78.10;;;;;;5036898;28;20647;-66
2023/05/22 02:58:55;;;;;;;3.83;3.43;;;18.80;78.00;;;;;;5037119;28;20207;-66
2023/05/22 03:01:21;;;;;;;7.17;4.03;;;18.80;77.80;;;;;;5037230;28;20787;-66
2023/05/22 03:03:47;;;;;;;4.17;3.60;;;18.80;77.90;;;;;;5036422;28;20284;-66
2023/05/22 03:06:13;;;;;;;4.07;3.67;;;18.80;77.80;;;;;;5035138;28;20287;-66
2023/05/22 03:08:42;;;;;;;5.43;3.87;;;18.90;77.60;;;;;;5040519;28;20211;-66
2023/05/22 03:11:08;;;;;;;6.30;4.00;;;18.80;78.90;;;;;;5040621;28;20856;-66
2023/05/22 03:13:33;;;;;;;5.63;3.73;;;18.80;78.20;;;;;;5040769;28;20200;-66
2023/05/22 03:15:59;;;;;;;4.80;3.73;;;18.60;78.40;;;;;;5037829;28;20204;-67
2023/05/22 03:18:25;;;;;;;3.83;3.33;;;18.40;78.90;;;;;;5041189;28;20258;-67
2023/05/22 03:20:50;;;;;;;7.77;4.00;;;18.40;78.80;;;;;;5039758;28;20189;-66
2023/05/22 03:23:16;;;;;;;6.80;4.80;;;18.50;79.20;;;;;;5040955;28;20204;-68
2023/05/22 03:25:42;;;;;;;5.83;3.87;;;18.60;79.30;;;;;;5041015;28;20196;-66
2023/05/22 03:28:07;;;;;;;4.87;4.37;;;18.60;79.00;;;;;;5040579;28;20209;-65
2023/05/22 03:30:33;;;;;;;4.00;3.70;;;18.60;79.10;;;;;;5038502;28;20200;-66
2023/05/22 03:32:58;;;;;;;4.17;3.77;;;18.50;79.40;;;;;;5040778;28;20573;-66
2023/05/22 03:35:24;;;;;;;9.27;3.57;;;18.40;79.70;;;;;;5040713;28;20250;-66
2023/05/22 03:37:50;;;;;;;4.27;3.87;;;18.40;79.90;;;;;;5039443;28;20294;-66
2023/05/22 03:40:16;;;;;;;4.27;3.70;;;18.40;80.20;;;;;;5040208;28;20217;-66
2023/05/22 03:42:41;;;;;;;4.23;3.67;;;18.50;80.50;;;;;;5040022;28;20606;-66
2023/05/22 03:45:07;;;;;;;4.40;3.53;;;18.50;80.50;;;;;;5038276;28;20211;-66
2023/05/22 03:47:33;;;;;;;8.47;3.93;;;18.40;81.00;;;;;;5039976;28;20212;-66
2023/05/22 03:49:58;;;;;;;5.90;3.23;;;18.40;81.20;;;;;;5040607;28;20213;-66
2023/05/22 03:52:24;;;;;;;4.97;3.90;;;18.40;81.50;;;;;;5040647;28;20719;-66
2023/05/22 03:54:50;;;;;;;7.00;4.17;;;18.50;80.30;;;;;;5040140;28;20683;-66
2023/05/22 03:57:18;;;;;;;4.87;3.80;;;18.50;80.10;;;;;;5038356;28;20198;-66
2023/05/22 03:59:44;;;;;;;6.93;3.90;;;18.50;81.70;;;;;;5035408;28;20273;-65
2023/05/22 04:02:11;;;;;;;4.10;3.43;;;18.50;82.40;;;;;;5035398;28;20204;-65
2023/05/22 04:04:37;;;;;;;4.40;3.80;;;18.40;82.70;;;;;;5040192;28;20197;-66
2023/05/22 04:07:07;;;;;;;9.30;4.40;;;18.30;82.50;;;;;;5039893;28;20200;-66
2023/05/22 04:09:34;;;;;;;7.13;4.03;;;18.30;83.40;;;;;;5038525;28;20294;-65
2023/05/22 04:12:00;;;;;;;5.10;3.87;;;18.40;82.80;;;;;;5040100;28;20206;-66
2023/05/22 04:14:26;;;;;;;6.23;3.60;;;18.40;83.30;;;;;;5040137;28;20208;-67
2023/05/22 04:16:51;;;;;;;4.27;3.87;;;18.40;81.70;;;;;;5039678;28;20667;-66
2023/05/22 04:19:17;;;;;;;4.40;4.07;;;18.40;82.20;;;;;;5033351;28;20730;-66
2023/05/22 04:21:43;;;;;;;4.03;3.63;;;18.30;83.30;;;;;;5037353;28;20257;-66
2023/05/22 04:24:09;;;;;;;6.37;4.50;;;18.30;83.10;;;;;;5039046;28;20206;-66
2023/05/22 04:26:36;;;;;;;5.57;3.67;;;18.40;82.60;;;;;;5038919;28;20299;-66
2023/05/22 04:29:02;;;;;;;4.33;3.93;;;18.60;81.80;;;;;;5039675;28;20200;-65
2023/05/22 04:31:28;;;;;;;4.00;3.60;;;18.60;81.80;;;;;;5038674;28;20286;-65
2023/05/22 04:33:54;;;;;;;5.43;4.43;;;18.50;81.80;;;;;;5038126;28;20765;-65
2023/05/22 04:36:25;;;;;;;7.63;3.93;;;18.60;82.30;;;;;;5039226;28;20210;-65
2023/05/22 04:38:51;;;;;;;6.60;4.00;;;18.50;82.60;;;;;;5039278;28;20239;-66
2023/05/22 04:41:16;;;;;;;4.07;3.67;;;18.40;83.10;;;;;;5039114;28;20262;-66
2023/05/22 04:43:43;;;;;;;4.30;3.90;;;18.50;82.20;;;;;;5037336;28;20191;-65
2023/05/22 04:46:09;;;;;;;4.40;4.00;;;18.50;82.00;;;;;;5037689;28;20215;-65
2023/05/22 04:48:35;;;;;;;5.07;3.43;;;18.50;82.90;;;;;;5037740;28;20605;-66
2023/05/22 04:51:01;;;;;;;5.97;3.87;;;18.50;82.40;;;;;;5038859;28;20213;-67
2023/05/22 04:53:29;;;;;;;4.90;4.40;;;18.50;82.50;;;;;;5030425;28;20211;-66
2023/05/22 04:55:55;;;;;;;4.67;4.23;;;18.50;83.30;;;;;;5029016;28;20203;-67
2023/05/22 04:58:20;;;;;;;5.43;4.33;;;18.50;83.20;;;;;;5029588;28;20651;-66
2023/05/22 05:00:46;;;;;;;4.03;3.70;;;18.60;82.60;;;;;;5038335;28;20203;-66
2023/05/22 05:03:11;;;;;;;4.70;4.20;;;18.70;82.60;;;;;;5038717;28;20251;-67
2023/05/22 05:05:37;;;;;;;5.73;4.00;;;18.70;83.80;;;;;;5038859;28;20192;-66
2023/05/22 05:08:02;;;;;;;4.77;4.37;;;18.60;83.70;;;;;;5037158;28;20295;-66
2023/05/22 05:10:28;;;;;;;5.03;3.80;;;18.60;84.00;;;;;;5038822;28;20221;-66
2023/05/22 05:12:53;;;;;;;7.47;4.57;;;18.60;83.30;;;;;;5038877;28;20203;-66
2023/05/22 05:15:19;;;;;;;4.33;3.90;;;18.60;84.10;;;;;;5038436;28;20258;-67
2023/05/22 05:17:45;;;;;;;7.00;4.13;;;18.60;84.80;;;;;;5038860;28;20744;-66
2023/05/22 05:20:13;;;;;;;4.87;4.27;;;18.60;83.90;;;;;;5032401;28;20219;-66
2023/05/22 05:22:39;;;;;;;7.10;4.17;;;18.50;83.90;;;;;;5027007;28;20207;-66
2023/05/22 05:25:05;;;;;;;5.73;4.00;;;18.50;84.20;;;;;;5027136;28;20208;-66
2023/05/22 05:27:30;;;;;;;7.03;4.33;;;18.50;85.30;;;;;;5027795;28;20201;-66
2023/05/22 05:29:55;;;;;;;4.23;3.73;;;18.40;86.50;;;;;;5027643;28;20973;-66
2023/05/22 05:32:21;;;;;;;7.10;4.10;;;18.40;86.20;;;;;;5027118;28;20670;-66
2023/05/22 05:34:46;;;;;;;4.70;4.20;;;18.50;86.10;;;;;;5037636;28;20215;-65
2023/05/22 05:37:12;;;;;;;9.50;4.63;;;18.50;85.70;;;;;;5036973;28;20317;-66
2023/05/22 05:39:37;;;;;;;10.37;4.23;;;18.50;85.20;;;;;;5035008;28;21132;-66
2023/05/22 05:42:03;;;;;;;4.97;4.57;;;18.50;86.60;;;;;;5034625;28;20278;-66
2023/05/22 05:44:28;;;;;;;5.97;4.63;;;18.50;86.80;;;;;;5037897;28;20196;-66
2023/05/22 05:46:54;;;;;;;5.70;4.53;;;18.40;87.00;;;;;;5036019;28;20685;-66
2023/05/22 05:49:19;;;;;;;6.47;3.97;;;18.50;86.70;;;;;;5038062;28;20210;-66
2023/05/22 05:51:45;;;;;;;5.33;4.53;;;18.60;87.40;;;;;;5036448;28;20201;-66
2023/05/22 05:54:10;;;;;;;6.60;4.50;;;18.60;87.20;;;;;;5037931;28;20221;-66
2023/05/22 05:56:36;;;;;;;4.80;4.07;;;18.70;86.50;;;;;;5037892;28;20205;-66
2023/05/22 05:59:02;;;;;;;7.17;4.57;;;18.70;86.50;;;;;;5023947;28;20224;-65
2023/05/22 06:01:28;;;;;;;7.40;4.73;;;18.80;86.50;;;;;;5018833;28;20286;-66
2023/05/22 06:03:54;;;;;;;5.20;4.70;;;18.80;85.70;;;;;;5027473;28;20278;-66
2023/05/22 06:06:19;;;;;;;8.10;4.30;;;18.70;87.80;;;;;;5028379;28;20247;-66
2023/05/22 06:08:45;;;;;;;5.13;4.60;;;18.80;87.10;;;;;;5029187;28;20209;-66
2023/05/22 06:11:10;;;;;;;5.20;4.67;;;18.90;87.00;;;;;;5027295;28;20207;-66
2023/05/22 06:13:36;;;;;;;4.27;3.87;;;18.90;87.70;;;;;;5025193;28;20207;-66
2023/05/22 06:16:01;;;;;;;4.47;4.00;;;18.90;88.10;;;;;;5026725;28;20718;-66
2023/05/22 06:18:27;;;;;;;6.07;4.60;;;19.00;87.70;;;;;;5026758;28;20220;-66
2023/05/22 06:20:52;;;;;;;6.87;4.40;;;19.10;87.80;;;;;;5025997;28;22367;-66
2023/05/22 06:23:18;;;;;;;10.00;4.40;;;19.20;87.60;;;;;;5027609;28;20195;-66
2023/05/22 06:25:44;;;;;;;9.63;4.70;;;19.20;88.10;;;;;;5026910;28;20617;-65
2023/05/22 06:28:10;;;;;;;5.93;4.63;;;19.30;87.60;;;;;;5025654;28;20200;-66
2023/05/22 06:30:35;;;;;;;6.13;5.33;;;19.30;87.70;;;;;;5027168;28;20734;-66
2023/05/22 06:33:02;;;;;;;4.77;4.27;;;19.40;87.90;;;;;;5027683;28;20242;-66
2023/05/22 06:35:28;;;;;;;9.03;4.60;;;19.50;88.00;;;;;;5027700;28;20237;-66
2023/05/22 06:37:54;;;;;;;5.90;4.83;;;19.50;87.10;;;;;;5027370;28;20248;-66
2023/05/22 06:40:19;;;;;;;6.57;4.27;;;19.60;87.60;;;;;;5024950;28;20730;-66
2023/05/22 06:42:45;;;;;;;5.63;4.67;;;19.60;87.80;;;;;;5026757;28;20411;-65
2023/05/22 06:45:10;;;;;;;10.30;4.80;;;19.60;89.30;;;;;;5026626;28;20209;-65
2023/05/22 06:47:36;;;;;;;9.63;4.53;;;19.60;89.30;;;;;;5026820;28;20206;-65
2023/05/22 06:50:02;;;;;;;9.87;4.97;;;19.80;87.70;;;;;;5026542;28;20206;-65
2023/05/22 06:52:27;;;;;;;5.37;4.87;;;19.70;88.70;;;;;;5026572;28;20605;-65
2023/05/22 06:54:53;;;;;;;5.53;4.30;;;19.90;87.00;;;;;;5029570;28;20938;-65
2023/05/22 06:57:20;;;;;;;5.80;4.50;;;19.90;87.00;;;;;;5019134;28;20268;-65
2023/05/22 06:59:45;;;;;;;8.10;4.13;;;19.90;86.90;;;;;;5027149;28;20308;-65
2023/05/22 07:02:11;;;;;;;7.50;4.80;;;19.90;88.00;;;;;;5027351;28;20267;-65
2023/05/22 07:04:36;;;;;;;8.17;5.30;;;19.90;87.50;;;;;;5026979;28;20570;-65
2023/05/22 07:07:02;;;;;;;10.40;5.00;;;19.80;89.20;;;;;;5024772;28;20193;-65
2023/05/22 07:09:27;;;;;;;9.80;5.17;;;19.90;87.90;;;;;;5026895;28;20202;-65
2023/05/22 07:11:53;;;;;;;7.07;4.47;;;20.00;88.50;;;;;;5026491;28;20258;-65
2023/05/22 07:14:18;;;;;;;8.43;5.17;;;20.10;89.70;;;;;;5026784;28;20236;-66
2023/05/22 07:16:43;;;;;;;7.37;5.33;;;20.10;89.30;;;;;;5030557;28;20320;-65
2023/05/22 07:19:10;;;;;;;6.90;4.90;;;20.10;89.20;;;;;;5022629;28;20230;-65
2023/05/22 07:21:36;;;;;;;8.33;4.50;;;20.20;89.80;;;;;;5027081;28;20346;-65
2023/05/22 07:24:06;;;;;;;7.30;5.23;;;20.20;89.20;;;;;;5024332;28;20731;-67
2023/05/22 07:26:33;;;;;;;7.30;4.70;;;20.20;89.00;;;;;;5027366;28;20335;-66
2023/05/22 07:28:58;;;;;;;5.17;4.63;;;20.30;89.40;;;;;;5024627;28;20293;-67
2023/05/22 07:31:24;;;;;;;12.30;5.00;;;20.30;89.50;;;;;;5025873;28;20359;-71
2023/05/22 07:33:49;;;;;;;5.43;4.67;;;20.40;90.30;;;;;;5026072;28;20225;-65
2023/05/22 07:36:16;;;;;;;10.57;5.60;;;20.60;88.00;;;;;;5028035;28;20213;-65
2023/05/22 07:38:41;;;;;;;9.10;4.87;;;20.60;88.00;;;;;;5026538;28;20206;-66
2023/05/22 07:41:07;;;;;;;10.63;5.20;;;20.70;87.80;;;;;;5023922;28;20675;-66
2023/05/22 07:43:32;;;;;;;5.67;4.53;;;20.70;87.70;;;;;;5027408;28;20230;-66
2023/05/22 07:45:58;;;;;;;10.07;5.00;;;20.80;87.60;;;;;;5022404;28;20955;-67
2023/05/22 07:48:23;;;;;;;5.47;4.97;;;20.80;88.00;;;;;;5029627;28;20202;-66
2023/05/22 07:50:49;;;;;;;5.23;4.73;;;20.90;87.90;;;;;;5026046;28;20209;-66
2023/05/22 07:53:15;;;;;;;6.67;4.90;;;21.00;88.20;;;;;;5028603;28;20196;-67
2023/05/22 07:55:41;;;;;;;6.13;5.53;;;21.10;87.30;;;;;;5026058;28;20658;-67
2023/05/22 07:58:07;;;;;;;10.50;4.97;;;21.10;87.50;;;;;;5029831;28;20704;-66
2023/05/22 08:00:32;;;;;;;6.57;5.27;;;21.10;88.30;;;;;;5027836;28;20237;-67
2023/05/22 08:02:58;;;;;;;7.70;4.80;;;21.20;89.00;;;;;;5029252;28;20229;-71
2023/05/22 08:05:23;;;;;;;6.43;4.83;;;21.40;87.70;;;;;;5029663;28;20644;-71
2023/05/22 08:07:49;;;;;;;5.00;4.50;;;21.50;86.70;;;;;;5031199;28;20620;-71
2023/05/22 08:10:16;;;;;;;5.03;4.63;;;21.60;85.60;;;;;;5026633;28;20198;-74
2023/05/22 08:12:42;;;;;;;4.67;3.80;;;21.80;85.90;;;;;;5028709;28;20199;-74
2023/05/22 08:15:08;;;;;;;5.90;4.43;;;21.80;86.10;;;;;;5032703;28;20289;-77
2023/05/22 08:17:34;;;;;;;5.10;4.67;;;21.90;85.90;;;;;;5029210;28;20661;-76
2023/05/22 08:19:59;;;;;;;6.63;4.57;;;22.10;88.40;;;;;;5029344;28;20242;-72
2023/05/22 08:22:28;;;;;;;5.83;3.93;;;22.00;85.70;;;;;;5030226;28;20561;-73
2023/05/22 08:24:53;;;;;;;5.43;4.53;;;22.10;84.50;;;;;;5023517;28;20268;-72
2023/05/22 08:27:19;;;;;;;8.80;4.50;;;22.10;84.40;;;;;;5029522;28;20764;-72
2023/05/22 08:29:44;;;;;;;6.67;4.40;;;22.10;84.60;;;;;;5030314;28;20198;-74
2023/05/22 08:32:10;;;;;;;5.40;3.93;;;22.20;84.30;;;;;;5030780;28;20207;-76
2023/05/22 08:34:35;;;;;;;8.50;4.30;;;22.20;84.40;;;;;;5026226;28;20238;-78
2023/05/22 08:37:01;;;;;;;4.63;4.23;;;22.10;84.80;;;;;;5027614;28;20328;-75
2023/05/22 08:39:27;;;;;;;6.63;4.03;;;22.20;85.20;;;;;;5029772;28;20295;-72
2023/05/22 08:41:53;;;;;;;5.70;4.47;;;22.20;86.30;;;;;;5028014;28;20676;-72
2023/05/22 08:44:19;;;;;;;4.60;3.67;;;22.40;84.60;;;;;;5027429;28;20202;-72
2023/05/22 08:46:46;;;;;;;6.97;3.87;;;22.40;83.10;;;;;;5029161;28;20221;-71
2023/05/22 08:49:11;;;;;;;5.50;4.03;;;22.40;84.50;;;;;;5027495;28;20200;-71
2023/05/22 08:51:39;;;;;;;6.30;4.03;;;22.50;83.50;;;;;;5029811;28;20209;-71
2023/05/22 08:54:06;;;;;;;5.70;4.37;;;22.50;82.90;;;;;;5024555;28;20281;-71
2023/05/22 08:56:33;;;;;;;4.40;3.57;;;22.70;83.20;;;;;;5022383;28;20249;-70
2023/05/22 08:59:00;;;;;;;16.20;4.93;;;22.90;82.10;;;;;;5021679;28;20206;-71
2023/05/22 09:01:26;;;;;;;5.03;4.27;;;22.90;82.50;;;;;;5017821;28;20222;-71
2023/05/22 09:03:52;;;;;;;7.90;3.97;;;22.90;82.10;;;;;;5017502;28;20209;-70
2023/05/22 09:06:18;;;;;;;4.57;4.17;;;23.00;81.30;;;;;;5019183;28;20275;-71
2023/05/22 09:08:44;;;;;;;13.60;4.60;;;23.10;81.40;;;;;;5026193;28;20249;-71
2023/05/22 09:11:11;;;;;;;5.47;3.97;;;23.20;82.20;;;;;;5028724;28;20289;-70
2023/05/22 09:13:39;;;;;;;3.73;3.43;;;23.40;81.30;;;;;;5028359;28;20191;-71
2023/05/22 09:16:09;;;;;;;4.53;3.53;;;23.50;81.30;;;;;;5022969;28;20199;-75
2023/05/22 09:18:39;;;;;;;6.65;3.55;;;23.60;80.00;;;;;;5023698;28;20302;-71
2023/05/22 09:21:09;;;;;;;4.30;4.00;;;23.60;82.10;;;;;;5030612;28;20199;-74
2023/05/22 09:23:34;;;;;;;5.67;3.93;;;23.60;83.00;;;;;;5022065;28;20222;-73
2023/05/22 09:26:01;;;;;;;3.90;3.40;;;23.50;80.30;;;;;;5028365;28;20660;-72
2023/05/22 09:28:33;;;;;;;5.37;4.20;;;23.70;81.60;;;;;;5028581;28;20203;-71
2023/05/22 09:30:59;;;;;;;5.80;3.77;;;23.70;82.40;;;;;;5028529;28;20273;-71
2023/05/22 09:33:24;;;;;;;4.37;3.47;;;23.60;80.60;;;;;;5028475;28;20650;-71
2023/05/22 09:35:53;;;;;;;5.77;3.63;;;23.60;79.70;;;;;;5030502;28;20187;-72
2023/05/22 09:38:22;;;;;;;4.87;4.00;;;23.60;80.90;;;;;;5037858;28;20219;-72
2023/05/22 09:40:53;;;;;;;7.33;4.07;;;23.50;81.30;;;;;;5035844;28;20207;-72
2023/05/22 09:43:20;;;;;;;4.20;3.77;;;23.70;80.60;;;;;;5024598;28;20305;-71
2023/05/22 09:45:45;;;;;;;8.70;4.72;;;23.90;79.20;;;;;;5028488;28;20202;-75
2023/05/22 09:48:11;;;;;;;5.70;4.80;;;23.90;80.40;;;;;;5038098;28;20282;-75
2023/05/22 09:50:38;;;;;;;5.28;4.65;;;24.00;80.90;;;;;;5037411;28;20240;-74
2023/05/22 09:53:04;;;;;;;5.95;4.10;;;24.20;80.00;;;;;;5037776;28;20767;-72
2023/05/22 09:55:31;;;;;;;7.93;5.50;;;24.30;79.80;;;;;;5025515;28;20281;-71
2023/05/22 09:58:01;;;;;;;6.57;3.92;;;24.30;79.10;;;;;;5019648;28;20398;-71
2023/05/22 10:00:27;;;;;;;4.78;4.03;;;24.40;78.40;;;;;;5021773;28;20219;-71
2023/05/22 10:03:02;;;;;;;4.32;3.75;;;24.30;79.70;;;;;;5021610;28;20206;-71
2023/05/22 10:05:30;;;;;;;5.10;4.10;;;24.20;81.60;;;;;;5022945;28;20206;-72
2023/05/22 10:08:07;;;;;;;14.13;6.97;;;24.40;78.40;;;;;;5025113;28;20254;-75
2023/05/22 10:10:34;;;;;;;6.22;4.40;;;24.30;78.40;;;;;;5025780;28;20285;-77
2023/05/22 10:13:03;;;;;;;5.50;4.53;;;24.40;78.00;;;;;;5035006;28;20225;-74
2023/05/22 10:15:34;;;;;;;4.17;3.80;;;24.30;78.80;;;;;;5036591;28;20215;-77
2023/05/22 10:18:00;;;;;;;5.37;3.90;;;24.40;77.30;;;;;;5035935;28;20209;-76
2023/05/22 10:20:27;;;;;;;5.53;4.18;;;24.50;76.90;;;;;;5028643;28;20269;-75
2023/05/22 10:22:54;;;;;;;4.77;4.03;;;24.40;77.50;;;;;;5021134;28;20324;-76
2023/05/22 10:25:21;;;;;;;9.82;4.70;;;24.40;77.00;;;;;;5023012;28;20206;-76
2023/05/22 10:27:47;;;;;;;3.85;3.55;;;24.40;78.10;;;;;;5024022;28;20207;-75
2023/05/22 10:30:23;;;;;;;4.85;4.10;;;24.50;78.00;;;;;;5022733;28;20210;-72
2023/05/22 10:33:07;;;;;;;6.13;4.35;;;24.60;77.40;;;;;;5019742;28;20204;-72
2023/05/22 10:35:48;;;;;;;5.88;4.28;;;24.60;78.00;;;;;;5019695;28;20196;-72
2023/05/22 10:38:33;;;;;;;7.32;4.20;;;24.70;78.00;;;;;;5022068;28;20226;-72
2023/05/22 10:41:00;;;;;;;7.57;4.18;;;24.60;76.20;;;;;;5019193;28;20199;-73
2023/05/22 10:43:30;;;;;;;6.15;3.70;;;24.70;76.20;;;;;;5021493;28;20212;-73
2023/05/22 10:46:03;;;;;;;4.85;3.83;;;24.70;75.00;;;;;;5018621;28;20196;-72
2023/05/22 10:48:47;;;;;;;3.85;3.55;;;24.60;77.30;;;;;;5022146;28;20202;-72
2023/05/22 10:51:16;;;;;;;4.30;3.30;;;24.70;75.70;;;;;;5020555;28;20231;-72
2023/05/22 10:53:44;;;;;;;5.32;3.83;;;24.70;77.00;;;;;;5018090;28;20247;-72
2023/05/22 10:56:11;;;;;;;6.07;3.60;;;24.80;73.70;;;;;;5020214;28;20292;-72
2023/05/22 10:58:37;;;;;;;3.95;3.60;;;24.90;77.50;;;;;;5018173;28;20320;-71
2023/05/22 11:01:14;;;;;;;5.07;3.85;;;24.90;78.30;;;;;;5021374;28;20207;-72
2023/05/22 11:03:57;;;;;;;4.40;4.00;;;24.90;77.00;;;;;;5020130;28;20226;-73
2023/05/22 11:06:41;;;;;;;5.72;3.88;;;25.00;76.50;;;;;;5017865;28;20208;-73
2023/05/22 11:09:26;;;;;;;3.72;3.42;;;25.30;73.30;;;;;;5016898;28;20207;-75
2023/05/22 11:12:10;;;;;;;7.07;3.40;;;25.30;72.70;;;;;;5014896;28;20679;-72
2023/05/22 11:14:35;;;;;;;4.80;4.25;;;25.30;75.40;;;;;;5018382;28;20320;-72
2023/05/22 11:17:01;;;;;;;4.18;3.78;;;25.40;73.30;;;;;;5017556;28;20465;-72
2023/05/22 11:19:27;;;;;;;6.57;4.32;;;25.50;71.50;;;;;;5025404;28;20220;-72
2023/05/22 11:22:00;;;;;;;7.95;3.92;;;25.50;72.70;;;;;;5024962;28;20201;-76
2023/05/22 11:24:27;;;;;;;5.35;4.00;;;25.40;74.30;;;;;;5007855;28;20213;-73
2023/05/22 11:27:04;;;;;;;4.97;3.53;;;25.50;69.50;;;;;;5016543;28;20194;-73
2023/05/22 11:29:30;;;;;;;11.35;3.75;;;25.40;71.00;;;;;;5022745;28;20202;-78
2023/05/22 11:31:57;;;;;;;5.43;4.03;;;25.40;69.50;;;;;;5030880;28;20217;-71
2023/05/22 11:34:24;;;;;;;10.05;3.67;;;25.50;69.10;;;;;;5029188;28;20204;-71
2023/05/22 11:36:51;;;;;;;3.88;3.25;;;25.50;69.40;;;;;;5026903;28;20263;-74
2023/05/22 11:39:17;;;;;;;5.20;3.47;;;25.60;72.50;;;;;;5026558;28;20561;-72
2023/05/22 11:41:42;;;;;;;3.25;3.05;;;25.80;71.00;;;;;;5028875;28;20207;-74
2023/05/22 11:44:08;;;;;;;3.50;3.17;;;25.80;69.00;;;;;;5031547;28;20546;-75
2023/05/22 11:46:34;;;;;;;3.78;3.00;;;26.00;69.20;;;;;;5020579;28;20197;-73
2023/05/22 11:49:00;;;;;;;3.70;3.33;;;26.40;64.60;;;;;;5032457;28;20220;-74
2023/05/22 11:51:27;;;;;;;6.88;3.05;;;26.30;64.80;;;;;;5029178;28;20226;-74
2023/05/22 11:53:52;;;;;;;6.18;3.38;;;26.20;64.40;;;;;;5020206;28;20195;-74
2023/05/22 11:56:22;;;;;;;4.72;3.10;;;26.20;64.60;;;;;;5019097;28;20215;-75
2023/05/22 11:58:48;;;;;;;6.00;3.40;;;26.20;65.00;;;;;;5023879;28;20639;-74
2023/05/22 12:01:14;;;;;;;4.82;3.38;;;26.00;63.30;;;;;;5022352;28;20267;-73
2023/05/22 12:03:40;;;;;;;6.10;3.10;;;26.10;63.20;;;;;;5011175;28;20741;-75
2023/05/22 12:06:07;;;;;;;4.20;3.38;;;26.10;62.20;;;;;;5024800;28;20339;-72
2023/05/22 12:08:33;;;;;;;3.63;3.30;;;26.20;66.10;;;;;;5027119;28;20208;-72
2023/05/22 12:10:58;;;;;;;8.32;3.25;;;26.20;63.40;;;;;;5024064;28;20193;-72
2023/05/22 12:13:29;;;;;;;3.33;3.03;;;26.30;67.10;;;;;;5015084;28;20301;-72
2023/05/22 12:15:59;;;;;;;3.08;2.85;;;26.40;62.60;;;;;;5011452;28;20201;-72
2023/05/22 12:18:35;;;;;;;6.38;2.90;;;26.50;64.00;;;;;;5020106;28;20199;-75
2023/05/22 12:21:00;;;;;;;3.75;3.45;;;26.60;65.00;;;;;;5019639;28;20319;-74
2023/05/22 12:23:27;;;;;;;3.58;3.28;;;26.90;60.20;;;;;;5025710;28;20399;-74
2023/05/22 12:25:57;;;;;;;3.97;3.47;;;27.10;59.70;;;;;;5015380;28;20250;-72
2023/05/22 12:28:23;;;;;;;4.57;3.13;;;27.10;58.90;;;;;;5013980;28;20379;-75
2023/05/22 12:30:53;;;;;;;4.75;2.80;;;27.30;60.30;;;;;;5017921;28;20193;-74
2023/05/22 12:33:19;;;;;;;3.45;3.15;;;27.50;58.90;;;;;;5028601;28;20242;-73
2023/05/22 12:35:44;;;;;;;4.20;3.78;;;27.40;59.60;;;;;;5030953;28;20222;-73
2023/05/22 12:38:12;;;;;;;8.93;3.03;;;27.20;59.20;;;;;;5017778;28;20226;-73
2023/05/22 12:40:37;;;;;;;4.50;2.80;;;27.60;58.70;;;;;;5025025;28;20242;-73
2023/05/22 12:43:03;;;;;;;3.83;3.08;;;27.90;56.20;;;;;;5024441;28;20315;-73
2023/05/22 12:45:29;;;;;;;4.88;2.95;;;28.00;59.10;;;;;;5027966;28;20211;-72
2023/05/22 12:47:54;;;;;;;4.50;2.88;;;28.00;59.80;;;;;;5035024;28;20202;-75